sensor_id;sensor_type;location;lat;lon;timestamp;temperature;humidity
44121;DHT22;29783;52.504;13.478;2024-01-30T00:01:41;1.80;79.80
44121;DHT22;29783;52.504;13.478;2024-01-30T00:04:06;1.80;79.80
44121;DHT22;29783;52.504;13.478;2024-01-30T00:06:32;1.80;80.00
44121;DHT22;29783;52.504;13.478;2024-01-30T00:08:58;1.80;80.10
44121;DHT22;29783;52.504;13.478;2024-01-30T00:11:23;1.80;79.80
44121;DHT22;29783;52.504;13.478;2024-01-30T00:13:51;1.80;79.70
44121;DHT22;29783;52.504;13.478;2024-01-30T00:16:23;1.80;79.90
44121;DHT22;29783;52.504;13.478;2024-01-30T00:18:52;1.70;80.10
44121;DHT22;29783;52.504;13.478;2024-01-30T00:21:19;1.70;80.20
44121;DHT22;29783;52.504;13.478;2024-01-30T00:23:44;1.60;80.40
44121;DHT22;29783;52.504;13.478;2024-01-30T00:26:10;1.60;80.60
44121;DHT22;29783;52.504;13.478;2024-01-30T00:28:37;1.50;80.60
44121;DHT22;29783;52.504;13.478;2024-01-30T00:31:03;1.50;80.70
44121;DHT22;29783;52.504;13.478;2024-01-30T00:33:28;1.50;80.80
44121;DHT22;29783;52.504;13.478;2024-01-30T00:35:54;1.40;81.00
44121;DHT22;29783;52.504;13.478;2024-01-30T00:38:20;1.40;81.10
44121;DHT22;29783;52.504;13.478;2024-01-30T00:40:45;1.40;81.10
44121;DHT22;29783;52.504;13.478;2024-01-30T00:43:11;1.40;81.20
44121;DHT22;29783;52.504;13.478;2024-01-30T00:45:36;1.30;81.30
44121;DHT22;29783;52.504;13.478;2024-01-30T00:48:02;1.40;81.30
44121;DHT22;29783;52.504;13.478;2024-01-30T00:50:28;1.30;81.40
44121;DHT22;29783;52.504;13.478;2024-01-30T00:52:54;1.30;81.50
44121;DHT22;29783;52.504;13.478;2024-01-30T00:55:19;1.30;81.50
44121;DHT22;29783;52.504;13.478;2024-01-30T00:57:45;1.30;81.70
44121;DHT22;29783;52.504;13.478;2024-01-30T01:00:11;1.30;81.60
44121;DHT22;29783;52.504;13.478;2024-01-30T01:02:38;1.20;81.60
44121;DHT22;29783;52.504;13.478;2024-01-30T01:05:05;1.20;81.80
44121;DHT22;29783;52.504;13.478;2024-01-30T01:07:30;1.20;81.90
44121;DHT22;29783;52.504;13.478;2024-01-30T01:09:56;1.20;82.00
44121;DHT22;29783;52.504;13.478;2024-01-30T01:12:22;1.20;82.00
44121;DHT22;29783;52.504;13.478;2024-01-30T01:14:48;1.20;82.10
44121;DHT22;29783;52.504;13.478;2024-01-30T01:17:13;1.10;82.20
44121;DHT22;29783;52.504;13.478;2024-01-30T01:19:39;1.10;82.20
44121;DHT22;29783;52.504;13.478;2024-01-30T01:22:04;1.10;82.30
44121;DHT22;29783;52.504;13.478;2024-01-30T01:24:31;1.00;82.40
44121;DHT22;29783;52.504;13.478;2024-01-30T01:26:58;1.10;82.40
44121;DHT22;29783;52.504;13.478;2024-01-30T01:29:24;1.00;82.40
44121;DHT22;29783;52.504;13.478;2024-01-30T01:31:55;1.00;82.50
44121;DHT22;29783;52.504;13.478;2024-01-30T01:34:21;1.00;82.60
44121;DHT22;29783;52.504;13.478;2024-01-30T01:36:47;1.00;82.60
44121;DHT22;29783;52.504;13.478;2024-01-30T01:39:12;1.00;82.70
44121;DHT22;29783;52.504;13.478;2024-01-30T01:41:38;1.00;82.60
44121;DHT22;29783;52.504;13.478;2024-01-30T01:44:04;1.00;82.60
44121;DHT22;29783;52.504;13.478;2024-01-30T01:46:33;0.90;82.70
44121;DHT22;29783;52.504;13.478;2024-01-30T01:48:59;1.00;82.80
44121;DHT22;29783;52.504;13.478;2024-01-30T01:51:27;0.90;82.80
44121;DHT22;29783;52.504;13.478;2024-01-30T01:53:54;1.00;82.90
44121;DHT22;29783;52.504;13.478;2024-01-30T01:56:21;0.90;82.90
44121;DHT22;29783;52.504;13.478;2024-01-30T01:58:48;0.90;83.00
44121;DHT22;29783;52.504;13.478;2024-01-30T02:01:14;0.90;83.00
44121;DHT22;29783;52.504;13.478;2024-01-30T02:03:41;0.80;83.10
44121;DHT22;29783;52.504;13.478;2024-01-30T02:06:07;0.90;83.10
44121;DHT22;29783;52.504;13.478;2024-01-30T02:08:32;0.90;83.10
44121;DHT22;29783;52.504;13.478;2024-01-30T02:10:59;0.80;83.20
44121;DHT22;29783;52.504;13.478;2024-01-30T02:13:25;0.80;83.40
44121;DHT22;29783;52.504;13.478;2024-01-30T02:15:53;0.80;83.50
44121;DHT22;29783;52.504;13.478;2024-01-30T02:18:19;0.80;83.60
44121;DHT22;29783;52.504;13.478;2024-01-30T02:20:45;0.80;83.60
44121;DHT22;29783;52.504;13.478;2024-01-30T02:23:12;0.80;83.60
44121;DHT22;29783;52.504;13.478;2024-01-30T02:25:42;0.80;83.70
44121;DHT22;29783;52.504;13.478;2024-01-30T02:28:12;0.80;83.70
44121;DHT22;29783;52.504;13.478;2024-01-30T02:30:45;0.80;83.70
44121;DHT22;29783;52.504;13.478;2024-01-30T02:33:14;0.80;83.60
44121;DHT22;29783;52.504;13.478;2024-01-30T02:35:40;0.90;83.60
44121;DHT22;29783;52.504;13.478;2024-01-30T02:38:05;0.90;83.30
44121;DHT22;29783;52.504;13.478;2024-01-30T02:40:31;0.90;83.30
44121;DHT22;29783;52.504;13.478;2024-01-30T02:43:01;0.90;83.30
44121;DHT22;29783;52.504;13.478;2024-01-30T02:45:27;1.00;83.20
44121;DHT22;29783;52.504;13.478;2024-01-30T02:47:53;1.00;83.00
44121;DHT22;29783;52.504;13.478;2024-01-30T02:50:19;1.00;83.00
44121;DHT22;29783;52.504;13.478;2024-01-30T02:52:44;1.00;83.00
44121;DHT22;29783;52.504;13.478;2024-01-30T02:55:10;1.00;83.00
44121;DHT22;29783;52.504;13.478;2024-01-30T02:57:36;1.00;83.10
44121;DHT22;29783;52.504;13.478;2024-01-30T03:00:03;1.00;83.00
44121;DHT22;29783;52.504;13.478;2024-01-30T03:02:29;1.00;83.10
44121;DHT22;29783;52.504;13.478;2024-01-30T03:04:55;1.00;83.10
44121;DHT22;29783;52.504;13.478;2024-01-30T03:07:20;1.00;83.20
44121;DHT22;29783;52.504;13.478;2024-01-30T03:09:46;0.90;83.30
44121;DHT22;29783;52.504;13.478;2024-01-30T03:12:11;0.90;83.30
44121;DHT22;29783;52.504;13.478;2024-01-30T03:14:37;0.90;83.40
44121;DHT22;29783;52.504;13.478;2024-01-30T03:17:03;0.90;83.50
44121;DHT22;29783;52.504;13.478;2024-01-30T03:19:29;0.90;83.60
44121;DHT22;29783;52.504;13.478;2024-01-30T03:21:54;0.80;83.60
44121;DHT22;29783;52.504;13.478;2024-01-30T03:24:20;0.80;83.70
44121;DHT22;29783;52.504;13.478;2024-01-30T03:26:45;0.90;83.70
44121;DHT22;29783;52.504;13.478;2024-01-30T03:29:11;0.80;83.80
44121;DHT22;29783;52.504;13.478;2024-01-30T03:31:37;0.80;83.80
44121;DHT22;29783;52.504;13.478;2024-01-30T03:34:02;0.80;83.90
44121;DHT22;29783;52.504;13.478;2024-01-30T03:36:28;0.80;83.90
44121;DHT22;29783;52.504;13.478;2024-01-30T03:38:54;0.80;84.00
44121;DHT22;29783;52.504;13.478;2024-01-30T03:41:19;0.80;84.00
44121;DHT22;29783;52.504;13.478;2024-01-30T03:43:45;0.80;84.10
44121;DHT22;29783;52.504;13.478;2024-01-30T03:46:14;0.80;84.10
44121;DHT22;29783;52.504;13.478;2024-01-30T03:48:39;0.80;84.30
44121;DHT22;29783;52.504;13.478;2024-01-30T03:51:05;0.80;84.30
44121;DHT22;29783;52.504;13.478;2024-01-30T03:53:31;0.80;84.40
44121;DHT22;29783;52.504;13.478;2024-01-30T03:55:56;0.80;84.50
44121;DHT22;29783;52.504;13.478;2024-01-30T03:58:22;0.70;84.60
44121;DHT22;29783;52.504;13.478;2024-01-30T04:00:48;0.70;84.80
44121;DHT22;29783;52.504;13.478;2024-01-30T04:03:16;0.70;84.80
44121;DHT22;29783;52.504;13.478;2024-01-30T04:05:42;0.70;84.90
44121;DHT22;29783;52.504;13.478;2024-01-30T04:08:08;0.80;84.90
44121;DHT22;29783;52.504;13.478;2024-01-30T04:10:34;0.80;84.80
44121;DHT22;29783;52.504;13.478;2024-01-30T04:12:59;0.80;84.90
44121;DHT22;29783;52.504;13.478;2024-01-30T04:15:25;0.80;84.80
44121;DHT22;29783;52.504;13.478;2024-01-30T04:17:51;0.80;84.90
44121;DHT22;29783;52.504;13.478;2024-01-30T04:20:17;0.80;84.90
44121;DHT22;29783;52.504;13.478;2024-01-30T04:22:44;0.80;85.10
44121;DHT22;29783;52.504;13.478;2024-01-30T04:25:10;0.70;85.10
44121;DHT22;29783;52.504;13.478;2024-01-30T04:27:36;0.80;85.10
44121;DHT22;29783;52.504;13.478;2024-01-30T04:30:01;0.80;85.20
44121;DHT22;29783;52.504;13.478;2024-01-30T04:32:27;0.80;85.10
44121;DHT22;29783;52.504;13.478;2024-01-30T04:34:52;0.80;85.10
44121;DHT22;29783;52.504;13.478;2024-01-30T04:37:18;0.80;85.20
44121;DHT22;29783;52.504;13.478;2024-01-30T04:39:43;0.80;85.10
44121;DHT22;29783;52.504;13.478;2024-01-30T04:42:09;0.80;85.20
44121;DHT22;29783;52.504;13.478;2024-01-30T04:44:35;0.80;85.30
44121;DHT22;29783;52.504;13.478;2024-01-30T04:47:00;0.80;85.30
44121;DHT22;29783;52.504;13.478;2024-01-30T04:49:27;0.80;85.50
44121;DHT22;29783;52.504;13.478;2024-01-30T04:51:54;0.80;85.50
44121;DHT22;29783;52.504;13.478;2024-01-30T04:54:20;0.80;85.40
44121;DHT22;29783;52.504;13.478;2024-01-30T04:56:45;0.80;85.40
44121;DHT22;29783;52.504;13.478;2024-01-30T04:59:11;0.80;85.40
44121;DHT22;29783;52.504;13.478;2024-01-30T05:01:37;0.80;85.40
44121;DHT22;29783;52.504;13.478;2024-01-30T05:04:03;0.80;85.30
44121;DHT22;29783;52.504;13.478;2024-01-30T05:06:29;0.80;85.40
44121;DHT22;29783;52.504;13.478;2024-01-30T05:08:55;0.80;85.40
44121;DHT22;29783;52.504;13.478;2024-01-30T05:11:20;0.80;85.50
44121;DHT22;29783;52.504;13.478;2024-01-30T05:13:46;0.80;85.50
44121;DHT22;29783;52.504;13.478;2024-01-30T05:16:13;0.80;85.70
44121;DHT22;29783;52.504;13.478;2024-01-30T05:18:38;0.80;85.60
44121;DHT22;29783;52.504;13.478;2024-01-30T05:21:05;0.70;85.70
44121;DHT22;29783;52.504;13.478;2024-01-30T05:23:30;0.70;85.80
44121;DHT22;29783;52.504;13.478;2024-01-30T05:25:56;0.70;85.90
44121;DHT22;29783;52.504;13.478;2024-01-30T05:28:22;0.70;86.00
44121;DHT22;29783;52.504;13.478;2024-01-30T05:30:47;0.70;86.10
44121;DHT22;29783;52.504;13.478;2024-01-30T05:33:13;0.60;86.30
44121;DHT22;29783;52.504;13.478;2024-01-30T05:35:38;0.80;86.40
44121;DHT22;29783;52.504;13.478;2024-01-30T05:38:04;0.80;86.20
44121;DHT22;29783;52.504;13.478;2024-01-30T05:40:33;0.70;86.20
44121;DHT22;29783;52.504;13.478;2024-01-30T05:42:58;0.80;86.20
44121;DHT22;29783;52.504;13.478;2024-01-30T05:45:26;0.70;86.20
44121;DHT22;29783;52.504;13.478;2024-01-30T05:47:52;0.70;86.40
44121;DHT22;29783;52.504;13.478;2024-01-30T05:50:19;0.70;86.60
44121;DHT22;29783;52.504;13.478;2024-01-30T05:52:45;0.70;86.80
44121;DHT22;29783;52.504;13.478;2024-01-30T05:55:12;0.70;86.80
44121;DHT22;29783;52.504;13.478;2024-01-30T05:57:38;0.60;86.80
44121;DHT22;29783;52.504;13.478;2024-01-30T06:00:05;0.60;87.00
44121;DHT22;29783;52.504;13.478;2024-01-30T06:02:31;0.70;87.00
44121;DHT22;29783;52.504;13.478;2024-01-30T06:04:57;0.60;87.10
44121;DHT22;29783;52.504;13.478;2024-01-30T06:07:22;0.60;87.00
44121;DHT22;29783;52.504;13.478;2024-01-30T06:09:48;0.70;87.10
44121;DHT22;29783;52.504;13.478;2024-01-30T06:12:14;0.70;87.00
44121;DHT22;29783;52.504;13.478;2024-01-30T06:14:39;0.70;86.90
44121;DHT22;29783;52.504;13.478;2024-01-30T06:17:08;0.70;87.00
44121;DHT22;29783;52.504;13.478;2024-01-30T06:19:33;0.70;86.90
44121;DHT22;29783;52.504;13.478;2024-01-30T06:21:59;0.70;86.90
44121;DHT22;29783;52.504;13.478;2024-01-30T06:24:24;0.60;87.00
44121;DHT22;29783;52.504;13.478;2024-01-30T06:26:50;0.80;87.50
44121;DHT22;29783;52.504;13.478;2024-01-30T06:29:16;0.80;87.10
44121;DHT22;29783;52.504;13.478;2024-01-30T06:31:42;0.70;86.90
44121;DHT22;29783;52.504;13.478;2024-01-30T06:34:08;0.70;86.90
44121;DHT22;29783;52.504;13.478;2024-01-30T06:36:34;0.70;87.00
44121;DHT22;29783;52.504;13.478;2024-01-30T06:39:00;0.70;87.00
44121;DHT22;29783;52.504;13.478;2024-01-30T06:41:26;0.70;87.10
44121;DHT22;29783;52.504;13.478;2024-01-30T06:43:52;0.70;87.10
44121;DHT22;29783;52.504;13.478;2024-01-30T06:46:17;0.80;87.10
44121;DHT22;29783;52.504;13.478;2024-01-30T06:48:43;0.70;87.20
44121;DHT22;29783;52.504;13.478;2024-01-30T06:51:10;0.80;87.10
44121;DHT22;29783;52.504;13.478;2024-01-30T06:53:36;0.70;87.10
44121;DHT22;29783;52.504;13.478;2024-01-30T06:56:02;0.80;87.20
44121;DHT22;29783;52.504;13.478;2024-01-30T06:58:28;0.80;87.20
44121;DHT22;29783;52.504;13.478;2024-01-30T07:00:54;0.80;87.00
44121;DHT22;29783;52.504;13.478;2024-01-30T07:03:20;0.80;87.00
44121;DHT22;29783;52.504;13.478;2024-01-30T07:05:47;0.80;87.00
44121;DHT22;29783;52.504;13.478;2024-01-30T07:08:12;0.80;86.90
44121;DHT22;29783;52.504;13.478;2024-01-30T07:10:38;0.90;86.90
44121;DHT22;29783;52.504;13.478;2024-01-30T07:13:04;0.90;86.90
44121;DHT22;29783;52.504;13.478;2024-01-30T07:15:31;1.00;86.70
44121;DHT22;29783;52.504;13.478;2024-01-30T07:17:56;1.00;86.50
44121;DHT22;29783;52.504;13.478;2024-01-30T07:20:22;1.10;86.40
44121;DHT22;29783;52.504;13.478;2024-01-30T07:22:48;1.10;86.30
44121;DHT22;29783;52.504;13.478;2024-01-30T07:25:13;1.10;86.20
44121;DHT22;29783;52.504;13.478;2024-01-30T07:27:39;1.20;86.10
44121;DHT22;29783;52.504;13.478;2024-01-30T07:30:05;1.30;86.00
44121;DHT22;29783;52.504;13.478;2024-01-30T07:32:31;1.30;85.90
44121;DHT22;29783;52.504;13.478;2024-01-30T07:34:57;1.40;85.80
44121;DHT22;29783;52.504;13.478;2024-01-30T07:37:23;1.50;85.70
44121;DHT22;29783;52.504;13.478;2024-01-30T07:39:48;1.50;85.50
44121;DHT22;29783;52.504;13.478;2024-01-30T07:42:14;1.60;85.30
44121;DHT22;29783;52.504;13.478;2024-01-30T07:44:40;1.80;85.00
44121;DHT22;29783;52.504;13.478;2024-01-30T07:47:05;1.80;84.80
44121;DHT22;29783;52.504;13.478;2024-01-30T07:49:34;1.90;84.50
44121;DHT22;29783;52.504;13.478;2024-01-30T07:52:00;2.00;83.90
44121;DHT22;29783;52.504;13.478;2024-01-30T07:54:31;2.10;83.60
44121;DHT22;29783;52.504;13.478;2024-01-30T08:03:42;2.30;82.90
44121;DHT22;29783;52.504;13.478;2024-01-30T08:06:09;2.30;82.80
44121;DHT22;29783;52.504;13.478;2024-01-30T08:08:34;2.40;82.70
44121;DHT22;29783;52.504;13.478;2024-01-30T08:11:00;2.40;82.10
44121;DHT22;29783;52.504;13.478;2024-01-30T08:13:26;2.40;82.10
44121;DHT22;29783;52.504;13.478;2024-01-30T08:15:52;2.50;81.90
44121;DHT22;29783;52.504;13.478;2024-01-30T08:18:17;2.60;81.80
44121;DHT22;29783;52.504;13.478;2024-01-30T08:20:43;2.60;81.80
44121;DHT22;29783;52.504;13.478;2024-01-30T08:23:08;2.60;81.60
44121;DHT22;29783;52.504;13.478;2024-01-30T08:25:34;2.60;81.30
44121;DHT22;29783;52.504;13.478;2024-01-30T08:28:01;2.70;81.30
44121;DHT22;29783;52.504;13.478;2024-01-30T08:30:27;2.80;81.00
44121;DHT22;29783;52.504;13.478;2024-01-30T08:32:53;2.80;80.70
44121;DHT22;29783;52.504;13.478;2024-01-30T08:35:18;2.90;80.60
44121;DHT22;29783;52.504;13.478;2024-01-30T08:37:44;2.90;80.60
44121;DHT22;29783;52.504;13.478;2024-01-30T08:40:09;3.00;80.30
44121;DHT22;29783;52.504;13.478;2024-01-30T08:42:35;3.00;80.10
44121;DHT22;29783;52.504;13.478;2024-01-30T08:45:01;3.00;80.00
44121;DHT22;29783;52.504;13.478;2024-01-30T08:47:26;3.10;80.00
44121;DHT22;29783;52.504;13.478;2024-01-30T08:49:52;3.20;79.60
44121;DHT22;29783;52.504;13.478;2024-01-30T08:52:18;3.20;79.40
44121;DHT22;29783;52.504;13.478;2024-01-30T08:54:43;3.30;79.20
44121;DHT22;29783;52.504;13.478;2024-01-30T08:57:09;3.40;79.00
44121;DHT22;29783;52.504;13.478;2024-01-30T08:59:34;3.60;78.60
44121;DHT22;29783;52.504;13.478;2024-01-30T09:02:00;3.70;78.20
44121;DHT22;29783;52.504;13.478;2024-01-30T09:04:26;3.90;78.00
44121;DHT22;29783;52.504;13.478;2024-01-30T09:06:51;4.00;77.30
44121;DHT22;29783;52.504;13.478;2024-01-30T09:09:17;4.20;76.70
44121;DHT22;29783;52.504;13.478;2024-01-30T09:11:43;4.30;76.20
44121;DHT22;29783;52.504;13.478;2024-01-30T09:14:09;4.30;75.60
44121;DHT22;29783;52.504;13.478;2024-01-30T09:16:35;4.50;75.10
44121;DHT22;29783;52.504;13.478;2024-01-30T09:19:00;4.70;74.50
44121;DHT22;29783;52.504;13.478;2024-01-30T09:21:26;4.70;74.10
44121;DHT22;29783;52.504;13.478;2024-01-30T09:23:54;4.80;73.80
44121;DHT22;29783;52.504;13.478;2024-01-30T09:26:20;5.00;73.30
44121;DHT22;29783;52.504;13.478;2024-01-30T09:28:45;5.00;72.30
44121;DHT22;29783;52.504;13.478;2024-01-30T09:31:13;4.90;72.50
44121;DHT22;29783;52.504;13.478;2024-01-30T09:33:39;4.90;72.70
44121;DHT22;29783;52.504;13.478;2024-01-30T09:36:05;5.00;72.60
44121;DHT22;29783;52.504;13.478;2024-01-30T09:38:31;5.00;72.30
44121;DHT22;29783;52.504;13.478;2024-01-30T09:41:03;5.10;72.20
44121;DHT22;29783;52.504;13.478;2024-01-30T09:43:33;5.10;72.10
44121;DHT22;29783;52.504;13.478;2024-01-30T09:46:02;5.20;71.80
44121;DHT22;29783;52.504;13.478;2024-01-30T09:48:29;5.20;71.70
44121;DHT22;29783;52.504;13.478;2024-01-30T09:50:57;5.20;71.20
44121;DHT22;29783;52.504;13.478;2024-01-30T09:53:22;5.30;71.30
44121;DHT22;29783;52.504;13.478;2024-01-30T09:55:50;5.30;71.20
44121;DHT22;29783;52.504;13.478;2024-01-30T09:58:16;5.30;71.10
44121;DHT22;29783;52.504;13.478;2024-01-30T10:00:42;5.30;71.00
44121;DHT22;29783;52.504;13.478;2024-01-30T10:03:08;5.50;70.70
44121;DHT22;29783;52.504;13.478;2024-01-30T10:05:35;5.70;70.20
44121;DHT22;29783;52.504;13.478;2024-01-30T10:08:06;5.80;69.50
44121;DHT22;29783;52.504;13.478;2024-01-30T10:10:33;5.80;69.10
44121;DHT22;29783;52.504;13.478;2024-01-30T10:12:59;6.00;69.20
44121;DHT22;29783;52.504;13.478;2024-01-30T10:15:25;6.00;68.70
44121;DHT22;29783;52.504;13.478;2024-01-30T10:17:53;6.10;68.20
44121;DHT22;29783;52.504;13.478;2024-01-30T10:20:18;6.00;67.90
44121;DHT22;29783;52.504;13.478;2024-01-30T10:22:45;6.20;67.90
44121;DHT22;29783;52.504;13.478;2024-01-30T10:25:11;6.20;67.30
44121;DHT22;29783;52.504;13.478;2024-01-30T10:27:39;6.30;67.40
44121;DHT22;29783;52.504;13.478;2024-01-30T10:30:05;6.30;67.20
44121;DHT22;29783;52.504;13.478;2024-01-30T10:32:30;6.40;66.90
44121;DHT22;29783;52.504;13.478;2024-01-30T10:34:56;6.60;66.40
44121;DHT22;29783;52.504;13.478;2024-01-30T10:37:25;6.60;65.80
44121;DHT22;29783;52.504;13.478;2024-01-30T10:39:53;6.60;65.70
44121;DHT22;29783;52.504;13.478;2024-01-30T10:42:20;6.70;65.90
44121;DHT22;29783;52.504;13.478;2024-01-30T10:45:02;6.70;65.40
44121;DHT22;29783;52.504;13.478;2024-01-30T10:47:31;6.70;65.60
44121;DHT22;29783;52.504;13.478;2024-01-30T10:49:59;6.70;65.50
44121;DHT22;29783;52.504;13.478;2024-01-30T10:52:26;6.80;65.20
44121;DHT22;29783;52.504;13.478;2024-01-30T10:54:54;6.90;64.90
44121;DHT22;29783;52.504;13.478;2024-01-30T10:57:20;7.00;64.10
44121;DHT22;29783;52.504;13.478;2024-01-30T10:59:48;7.10;63.90
44121;DHT22;29783;52.504;13.478;2024-01-30T11:02:15;7.20;62.90
44121;DHT22;29783;52.504;13.478;2024-01-30T11:04:41;7.10;62.70
44121;DHT22;29783;52.504;13.478;2024-01-30T11:07:16;7.20;62.30
44121;DHT22;29783;52.504;13.478;2024-01-30T11:10:09;7.30;61.70
44121;DHT22;29783;52.504;13.478;2024-01-30T11:12:39;7.40;60.90
44121;DHT22;29783;52.504;13.478;2024-01-30T11:15:18;7.50;60.40
44121;DHT22;29783;52.504;13.478;2024-01-30T11:20:27;7.60;59.60
44121;DHT22;29783;52.504;13.478;2024-01-30T11:22:57;7.60;59.40
44121;DHT22;29783;52.504;13.478;2024-01-30T11:25:24;7.60;59.50
44121;DHT22;29783;52.504;13.478;2024-01-30T11:27:54;7.70;59.30
44121;DHT22;29783;52.504;13.478;2024-01-30T11:32:59;7.70;59.80
44121;DHT22;29783;52.504;13.478;2024-01-30T11:35:26;7.80;59.10
44121;DHT22;29783;52.504;13.478;2024-01-30T11:37:52;7.80;59.20
44121;DHT22;29783;52.504;13.478;2024-01-30T11:40:19;8.00;58.90
44121;DHT22;29783;52.504;13.478;2024-01-30T11:42:45;8.20;58.90
44121;DHT22;29783;52.504;13.478;2024-01-30T11:45:12;8.10;58.80
44121;DHT22;29783;52.504;13.478;2024-01-30T11:47:38;8.00;58.40
44121;DHT22;29783;52.504;13.478;2024-01-30T11:50:04;8.10;58.90
44121;DHT22;29783;52.504;13.478;2024-01-30T11:52:35;8.20;58.80
44121;DHT22;29783;52.504;13.478;2024-01-30T11:55:00;8.20;58.60
44121;DHT22;29783;52.504;13.478;2024-01-30T11:57:29;8.20;58.70
44121;DHT22;29783;52.504;13.478;2024-01-30T11:59:55;8.40;58.30
44121;DHT22;29783;52.504;13.478;2024-01-30T12:02:20;8.50;58.70
44121;DHT22;29783;52.504;13.478;2024-01-30T12:04:46;8.60;58.00
44121;DHT22;29783;52.504;13.478;2024-01-30T12:07:12;8.60;57.80
44121;DHT22;29783;52.504;13.478;2024-01-30T12:09:41;8.70;58.00
44121;DHT22;29783;52.504;13.478;2024-01-30T12:12:07;8.50;58.20
44121;DHT22;29783;52.504;13.478;2024-01-30T12:14:40;8.60;57.90
44121;DHT22;29783;52.504;13.478;2024-01-30T12:17:07;8.70;57.80
44121;DHT22;29783;52.504;13.478;2024-01-30T12:19:34;8.70;57.90
44121;DHT22;29783;52.504;13.478;2024-01-30T12:21:59;8.60;58.00
44121;DHT22;29783;52.504;13.478;2024-01-30T12:24:28;8.70;58.30
44121;DHT22;29783;52.504;13.478;2024-01-30T12:26:59;8.60;58.40
44121;DHT22;29783;52.504;13.478;2024-01-30T12:29:25;8.70;58.40
44121;DHT22;29783;52.504;13.478;2024-01-30T12:31:53;8.80;58.10
44121;DHT22;29783;52.504;13.478;2024-01-30T12:34:19;8.80;57.90
44121;DHT22;29783;52.504;13.478;2024-01-30T12:36:47;8.70;58.30
44121;DHT22;29783;52.504;13.478;2024-01-30T12:39:14;8.80;58.40
44121;DHT22;29783;52.504;13.478;2024-01-30T12:41:40;8.80;58.70
44121;DHT22;29783;52.504;13.478;2024-01-30T12:44:06;8.80;58.60
44121;DHT22;29783;52.504;13.478;2024-01-30T12:46:34;8.90;58.70
44121;DHT22;29783;52.504;13.478;2024-01-30T12:49:00;9.00;58.50
44121;DHT22;29783;52.504;13.478;2024-01-30T12:51:26;8.90;58.80
44121;DHT22;29783;52.504;13.478;2024-01-30T12:53:54;8.80;59.00
44121;DHT22;29783;52.504;13.478;2024-01-30T12:56:20;8.80;59.20
44121;DHT22;29783;52.504;13.478;2024-01-30T12:58:45;8.90;59.30
44121;DHT22;29783;52.504;13.478;2024-01-30T13:01:11;8.80;59.40
44121;DHT22;29783;52.504;13.478;2024-01-30T13:03:37;9.10;59.00
44121;DHT22;29783;52.504;13.478;2024-01-30T13:06:03;9.30;58.90
44121;DHT22;29783;52.504;13.478;2024-01-30T13:08:29;9.40;58.20
44121;DHT22;29783;52.504;13.478;2024-01-30T13:10:54;9.40;58.40
44121;DHT22;29783;52.504;13.478;2024-01-30T13:13:20;9.40;58.60
44121;DHT22;29783;52.504;13.478;2024-01-30T13:15:45;9.30;58.80
44121;DHT22;29783;52.504;13.478;2024-01-30T13:18:11;9.30;58.80
44121;DHT22;29783;52.504;13.478;2024-01-30T13:20:37;9.40;58.80
44121;DHT22;29783;52.504;13.478;2024-01-30T13:23:02;9.30;59.10
44121;DHT22;29783;52.504;13.478;2024-01-30T13:25:28;9.20;59.70
44121;DHT22;29783;52.504;13.478;2024-01-30T13:27:53;9.20;59.80
44121;DHT22;29783;52.504;13.478;2024-01-30T13:30:19;9.30;59.80
44121;DHT22;29783;52.504;13.478;2024-01-30T13:32:45;9.40;59.40
44121;DHT22;29783;52.504;13.478;2024-01-30T13:35:11;9.50;59.20
44121;DHT22;29783;52.504;13.478;2024-01-30T13:37:37;9.50;59.20
44121;DHT22;29783;52.504;13.478;2024-01-30T13:40:05;9.30;59.70
44121;DHT22;29783;52.504;13.478;2024-01-30T13:42:34;9.40;59.80
44121;DHT22;29783;52.504;13.478;2024-01-30T13:45:00;9.30;60.20
44121;DHT22;29783;52.504;13.478;2024-01-30T13:47:25;9.30;60.60
44121;DHT22;29783;52.504;13.478;2024-01-30T13:49:51;9.20;60.80
44121;DHT22;29783;52.504;13.478;2024-01-30T13:52:19;9.30;60.70
44121;DHT22;29783;52.504;13.478;2024-01-30T13:54:45;9.50;60.30
44121;DHT22;29783;52.504;13.478;2024-01-30T13:57:11;9.50;60.40
44121;DHT22;29783;52.504;13.478;2024-01-30T13:59:38;9.60;60.10
44121;DHT22;29783;52.504;13.478;2024-01-30T14:02:04;9.60;60.30
44121;DHT22;29783;52.504;13.478;2024-01-30T14:04:29;9.50;60.20
44121;DHT22;29783;52.504;13.478;2024-01-30T14:06:55;9.40;60.90
44121;DHT22;29783;52.504;13.478;2024-01-30T14:09:20;9.50;60.60
44121;DHT22;29783;52.504;13.478;2024-01-30T14:11:46;9.50;60.60
44121;DHT22;29783;52.504;13.478;2024-01-30T14:14:12;9.50;60.80
44121;DHT22;29783;52.504;13.478;2024-01-30T14:16:38;9.40;61.20
44121;DHT22;29783;52.504;13.478;2024-01-30T14:19:03;9.40;61.10
44121;DHT22;29783;52.504;13.478;2024-01-30T14:21:29;9.50;61.10
44121;DHT22;29783;52.504;13.478;2024-01-30T14:23:55;9.40;61.30
44121;DHT22;29783;52.504;13.478;2024-01-30T14:26:20;9.30;61.50
44121;DHT22;29783;52.504;13.478;2024-01-30T14:28:46;9.40;61.50
44121;DHT22;29783;52.504;13.478;2024-01-30T14:31:12;9.30;62.00
44121;DHT22;29783;52.504;13.478;2024-01-30T14:33:39;9.20;62.10
44121;DHT22;29783;52.504;13.478;2024-01-30T14:36:04;9.20;62.50
44121;DHT22;29783;52.504;13.478;2024-01-30T14:38:30;9.20;62.50
44121;DHT22;29783;52.504;13.478;2024-01-30T14:40:56;9.20;62.50
44121;DHT22;29783;52.504;13.478;2024-01-30T14:43:21;9.20;62.70
44121;DHT22;29783;52.504;13.478;2024-01-30T14:45:47;9.10;62.80
44121;DHT22;29783;52.504;13.478;2024-01-30T14:48:15;9.00;63.40
44121;DHT22;29783;52.504;13.478;2024-01-30T14:50:40;8.90;63.60
44121;DHT22;29783;52.504;13.478;2024-01-30T14:53:06;8.80;64.00
44121;DHT22;29783;52.504;13.478;2024-01-30T14:55:32;8.80;64.20
44121;DHT22;29783;52.504;13.478;2024-01-30T14:57:58;8.80;64.60
44121;DHT22;29783;52.504;13.478;2024-01-30T15:00:24;8.70;64.70
44121;DHT22;29783;52.504;13.478;2024-01-30T15:02:50;8.80;64.70
44121;DHT22;29783;52.504;13.478;2024-01-30T15:05:16;8.60;65.10
44121;DHT22;29783;52.504;13.478;2024-01-30T15:07:42;8.60;65.40
44121;DHT22;29783;52.504;13.478;2024-01-30T15:10:08;8.50;65.70
44121;DHT22;29783;52.504;13.478;2024-01-30T15:12:35;8.40;66.00
44121;DHT22;29783;52.504;13.478;2024-01-30T15:15:01;8.40;66.40
44121;DHT22;29783;52.504;13.478;2024-01-30T15:17:26;8.30;66.50
44121;DHT22;29783;52.504;13.478;2024-01-30T15:19:52;8.30;66.70
44121;DHT22;29783;52.504;13.478;2024-01-30T15:22:18;8.20;67.00
44121;DHT22;29783;52.504;13.478;2024-01-30T15:24:43;8.20;67.20
44121;DHT22;29783;52.504;13.478;2024-01-30T15:27:09;8.20;67.50
44121;DHT22;29783;52.504;13.478;2024-01-30T15:29:35;8.20;67.60
44121;DHT22;29783;52.504;13.478;2024-01-30T15:32:00;8.20;67.60
44121;DHT22;29783;52.504;13.478;2024-01-30T15:34:26;8.10;67.80
44121;DHT22;29783;52.504;13.478;2024-01-30T15:36:52;8.10;68.10